Terminal Aerodrome Forecast
Issued by NWS Corpus Christi, TX

Home | Current Version | Previous Version | Text Only | Print | Product List | Glossary On
Versions: 1 2 3 4 5 6 7 8 9 10 11 12
000
FTUS44 KCRP 101700
TAFVCT
TAF
KVCT 101729Z 1018/1118 16010KT P6SM VCSH FEW030 BKN150
     FM102300 16005KT P6SM BKN150
     FM111600 15012KT P6SM FEW030 SCT150=

USA.gov is the U.S. government's official web portal to all federal, state and local government web resources and services.